createdAt,value
2022-08-09T00:00:21.679Z,21.19
2022-08-09T00:02:51.478Z,21.42
2022-08-09T00:06:15.620Z,21.48
2022-08-09T00:08:09.937Z,21.64
2022-08-09T00:10:40.546Z,21.60
2022-08-09T00:13:17.225Z,21.68
2022-08-09T00:15:59.339Z,21.20
2022-08-09T00:18:34.922Z,21.12
2022-08-09T00:21:04.695Z,21.44
2022-08-09T00:23:56.446Z,20.75
2022-08-09T00:26:18.236Z,21.01
2022-08-09T00:28:52.549Z,21.22
2022-08-09T00:31:56.744Z,21.34
2022-08-09T00:34:10.832Z,21.36
2022-08-09T00:36:37.919Z,21.21
2022-08-09T00:39:06.751Z,21.07
2022-08-09T00:44:14.578Z,20.94
2022-08-09T00:44:30.838Z,20.86
2022-08-09T00:47:01.688Z,21.11
2022-08-09T00:49:36.707Z,21.09
2022-08-09T00:52:05.952Z,21.06
2022-08-09T00:54:35.855Z,20.70
2022-08-09T00:57:08.977Z,20.72
2022-08-09T00:59:46.854Z,20.66
2022-08-09T01:02:24.361Z,20.79
2022-08-09T01:05:02.641Z,20.69
2022-08-09T01:07:59.944Z,20.78
2022-08-09T01:10:38.228Z,20.46
2022-08-09T01:13:16.822Z,19.97
2022-08-09T01:15:52.138Z,19.97
2022-08-09T01:18:29.999Z,20.50
2022-08-09T01:21:44.763Z,20.61
2022-08-09T01:24:34.374Z,20.71
2022-08-09T01:27:07.883Z,20.64
2022-08-09T01:29:55.751Z,20.74
2022-08-09T01:32:30.959Z,20.42
2022-08-09T01:35:07.032Z,20.44
2022-08-09T01:38:07.871Z,20.35
2022-08-09T01:40:43.864Z,20.28
2022-08-09T01:43:11.802Z,19.75
2022-08-09T01:45:46.297Z,20.25
2022-08-09T01:48:20.079Z,20.25
2022-08-09T01:50:58.580Z,20.17
2022-08-09T01:53:29.091Z,20.15
2022-08-09T01:56:10.194Z,20.11
2022-08-09T01:58:38.811Z,20.26
2022-08-09T02:01:06.663Z,20.17
2022-08-09T02:03:36.566Z,20.30
2022-08-09T02:06:07.042Z,19.78
2022-08-09T02:08:57.830Z,19.65
2022-08-09T02:11:40.333Z,20.14
2022-08-09T02:14:16.030Z,19.62
2022-08-09T02:17:14.804Z,19.78
2022-08-09T02:19:43.740Z,20.15
2022-08-09T02:22:46.571Z,19.93
2022-08-09T02:25:18.908Z,20.29
2022-08-09T02:28:00.558Z,20.04
2022-08-09T02:30:39.246Z,19.85
2022-08-09T02:33:14.084Z,19.68
2022-08-09T02:36:01.967Z,19.49
2022-08-09T02:38:34.961Z,19.90
2022-08-09T02:41:15.850Z,19.61
2022-08-09T02:43:54.881Z,19.23
2022-08-09T02:46:27.491Z,19.67
2022-08-09T02:49:00.947Z,19.22
2022-08-09T02:51:37.239Z,19.27
2022-08-09T02:54:10.434Z,19.32
2022-08-09T02:56:41.573Z,19.42
2022-08-09T02:59:26.328Z,19.60
2022-08-09T03:02:07.076Z,19.19
2022-08-09T03:04:40.652Z,19.50
2022-08-09T03:07:12.155Z,19.62
2022-08-09T03:09:42.635Z,19.07
2022-08-09T03:12:13.434Z,19.08
2022-08-09T03:14:42.946Z,19.51
2022-08-09T03:17:16.751Z,19.51
2022-08-09T03:19:58.790Z,18.95
2022-08-09T03:22:31.461Z,18.72
2022-08-09T03:25:03.314Z,18.55
2022-08-09T03:27:50.495Z,19.16
2022-08-09T03:30:29.495Z,18.98
2022-08-09T03:33:16.995Z,18.84
2022-08-09T03:36:13.091Z,18.91
2022-08-09T03:38:42.851Z,19.20
2022-08-09T03:41:15.215Z,19.08
2022-08-09T03:44:03.675Z,18.96
2022-08-09T03:46:31.230Z,19.07
2022-08-09T03:49:04.218Z,18.93
2022-08-09T03:51:55.737Z,19.08
2022-08-09T03:54:29.662Z,18.90
2022-08-09T03:56:59.415Z,18.66
2022-08-09T03:59:43.086Z,18.54
2022-08-09T04:02:14.191Z,18.85
2022-08-09T04:04:41.103Z,18.84
2022-08-09T04:07:12.915Z,18.88
2022-08-09T04:09:47.501Z,18.75
2022-08-09T04:12:31.067Z,18.84
2022-08-09T04:15:01.581Z,18.86
2022-08-09T04:17:38.230Z,18.83
2022-08-09T04:20:07.921Z,18.81
2022-08-09T04:22:34.889Z,18.75
2022-08-09T04:25:09.078Z,18.48
2022-08-09T04:27:41.013Z,18.69
2022-08-09T04:30:13.843Z,18.78
2022-08-09T04:32:40.933Z,18.77
2022-08-09T04:35:13.601Z,18.52
2022-08-09T04:37:45.698Z,18.48
2022-08-09T04:40:19.270Z,18.33
2022-08-09T04:42:56.829Z,18.46
2022-08-09T04:45:23.828Z,18.35
2022-08-09T04:48:00.156Z,18.49
2022-08-09T04:50:31.934Z,18.44
2022-08-09T04:53:02.600Z,18.45
2022-08-09T04:55:39.609Z,18.52
2022-08-09T04:58:17.250Z,18.62
2022-08-09T05:00:44.771Z,18.60
2022-08-09T05:03:40.209Z,18.56
2022-08-09T05:06:06.875Z,18.58
2022-08-09T05:08:35.081Z,18.29
2022-08-09T05:11:02.740Z,18.37
2022-08-09T05:13:33.070Z,18.61
2022-08-09T05:16:00.743Z,18.45
2022-08-09T05:18:39.850Z,18.54
2022-08-09T05:21:23.317Z,18.53
2022-08-09T05:23:58.258Z,18.51
2022-08-09T05:26:36.728Z,18.63
2022-08-09T05:29:07.706Z,18.72
2022-08-09T05:31:46.628Z,18.79
2022-08-09T05:34:16.656Z,18.86
2022-08-09T05:36:47.042Z,18.81
2022-08-09T05:39:28.236Z,18.92
2022-08-09T05:42:01.443Z,18.92
2022-08-09T05:44:32.736Z,19.03
2022-08-09T05:47:01.424Z,19.03
2022-08-09T05:50:24.442Z,19.12
2022-08-09T05:52:19.259Z,18.95
2022-08-09T05:54:46.769Z,19.01
2022-08-09T05:57:17.463Z,19.08
2022-08-09T05:59:46.390Z,19.16
2022-08-09T06:02:17.142Z,19.23
2022-08-09T06:04:45.963Z,19.17
2022-08-09T06:07:21.380Z,19.14
2022-08-09T06:10:01.782Z,18.92
2022-08-09T06:12:29.184Z,18.87
2022-08-09T06:14:57.713Z,18.97
2022-08-09T06:17:28.030Z,19.05
2022-08-09T06:20:07.614Z,19.25
2022-08-09T06:22:34.807Z,19.31
2022-08-09T06:25:01.772Z,19.25
2022-08-09T06:27:41.338Z,19.38
2022-08-09T06:30:14.074Z,19.43
2022-08-09T06:33:13.741Z,19.31
2022-08-09T06:35:55.701Z,19.48
2022-08-09T06:38:16.081Z,19.69
2022-08-09T06:40:43.186Z,19.75
2022-08-09T06:43:10.399Z,19.76
2022-08-09T06:46:05.537Z,19.78
2022-08-09T06:48:30.759Z,19.96
2022-08-09T06:50:59.729Z,20.11
2022-08-09T06:53:27.395Z,20.18
2022-08-09T06:56:00.405Z,20.16
2022-08-09T06:58:40.598Z,20.27
2022-08-09T07:01:13.769Z,20.53
2022-08-09T07:03:51.797Z,20.59
2022-08-09T07:06:20.799Z,20.63
2022-08-09T07:08:49.715Z,20.71
2022-08-09T07:11:23.466Z,20.73
2022-08-09T07:14:04.790Z,20.86
2022-08-09T07:16:41.088Z,21.07
2022-08-09T07:19:15.036Z,21.07
2022-08-09T07:21:43.299Z,21.50
2022-08-09T07:24:32.246Z,21.16
2022-08-09T07:27:10.945Z,21.38
2022-08-09T07:29:56.839Z,21.35
2022-08-09T07:32:23.917Z,21.63
2022-08-09T07:34:59.650Z,21.65
2022-08-09T07:37:26.508Z,21.85
2022-08-09T07:39:53.759Z,21.71
2022-08-09T07:42:32.866Z,21.85
2022-08-09T07:45:02.606Z,22.35
2022-08-09T07:48:00.559Z,22.32
2022-08-09T07:50:34.739Z,22.38
2022-08-09T07:53:04.817Z,22.58
2022-08-09T07:56:02.870Z,22.87
2022-08-09T07:58:19.224Z,22.60
2022-08-09T08:00:55.689Z,22.71
2022-08-09T08:03:26.630Z,22.89
2022-08-09T08:05:57.737Z,22.93
2022-08-09T08:09:01.419Z,23.11
2022-08-09T08:12:11.233Z,23.01
2022-08-09T08:13:59.507Z,23.17
2022-08-09T08:16:29.700Z,23.17
2022-08-09T08:18:59.199Z,23.32
2022-08-09T08:21:26.660Z,23.27
2022-08-09T08:23:55.919Z,23.39
2022-08-09T08:26:26.372Z,23.46
2022-08-09T08:28:53.526Z,23.53
2022-08-09T08:31:20.101Z,23.46
2022-08-09T08:33:53.832Z,23.84
2022-08-09T08:36:28.729Z,23.82
2022-08-09T08:38:56.354Z,24.09
2022-08-09T08:41:24.695Z,24.20
2022-08-09T08:44:09.456Z,24.17
2022-08-09T08:47:02.111Z,24.29
2022-08-09T08:49:38.525Z,24.12
2022-08-09T08:52:29.613Z,24.29
2022-08-09T08:55:04.033Z,24.52
2022-08-09T08:57:34.933Z,24.31
2022-08-09T09:00:12.895Z,24.35
2022-08-09T09:02:52.989Z,24.38
2022-08-09T09:05:59.117Z,24.57
2022-08-09T09:08:30.419Z,24.72
2022-08-09T09:10:59.948Z,24.64
2022-08-09T09:13:42.180Z,24.70
2022-08-09T09:16:13.582Z,24.93
2022-08-09T09:18:45.856Z,24.76
2022-08-09T09:21:16.219Z,25.14
2022-08-09T09:23:58.456Z,25.07
2022-08-09T09:26:31.972Z,25.17
2022-08-09T09:29:10.321Z,25.06
2022-08-09T09:32:06.475Z,25.08
2022-08-09T09:34:37.066Z,25.22
2022-08-09T09:37:06.322Z,25.35
2022-08-09T09:39:56.661Z,25.40
2022-08-09T09:42:27.703Z,25.53
2022-08-09T09:45:03.156Z,25.25
2022-08-09T09:47:30.372Z,25.70
2022-08-09T09:50:14.058Z,25.61
2022-08-09T09:52:54.661Z,25.74
2022-08-09T09:55:29.156Z,25.59
2022-08-09T09:58:16.891Z,25.68
2022-08-09T10:00:54.568Z,25.70
2022-08-09T10:03:57.130Z,25.84
2022-08-09T10:06:37.896Z,25.87
2022-08-09T10:09:22.614Z,25.96
2022-08-09T10:12:11.448Z,26.20
2022-08-09T10:14:39.653Z,26.10
2022-08-09T10:17:40.004Z,26.17
2022-08-09T10:19:59.297Z,26.21
2022-08-09T10:22:37.466Z,26.15
2022-08-09T10:25:11.792Z,25.96
2022-08-09T10:27:45.281Z,26.14
2022-08-09T10:34:05.261Z,26.36
2022-08-09T10:36:11.852Z,26.05
2022-08-09T10:38:56.158Z,26.10
2022-08-09T10:41:26.383Z,26.51
2022-08-09T10:43:59.156Z,26.33
2022-08-09T10:46:55.262Z,26.74
2022-08-09T10:49:49.826Z,26.45
2022-08-09T10:52:44.523Z,26.72
2022-08-09T10:55:20.873Z,26.77
2022-08-09T10:57:52.065Z,26.69
2022-08-09T11:00:36.453Z,26.65
2022-08-09T11:03:27.917Z,27.03
2022-08-09T11:06:18.551Z,27.09
2022-08-09T11:08:53.013Z,27.14
2022-08-09T11:11:21.892Z,27.38
2022-08-09T11:14:28.072Z,27.21
2022-08-09T11:16:55.002Z,27.09
2022-08-09T11:20:07.803Z,26.77
2022-08-09T11:22:44.998Z,27.24
2022-08-09T11:25:26.045Z,27.06
2022-08-09T11:28:34.412Z,27.30
2022-08-09T11:31:43.410Z,27.33
2022-08-09T11:34:21.955Z,27.29
2022-08-09T11:36:49.195Z,27.33
2022-08-09T11:39:16.676Z,27.49
2022-08-09T11:41:43.596Z,27.53
2022-08-09T11:44:12.049Z,27.61
2022-08-09T11:46:54.605Z,27.62
2022-08-09T11:50:53.932Z,27.55
2022-08-09T11:53:16.307Z,27.76
2022-08-09T11:55:52.243Z,27.53
2022-08-09T11:58:32.556Z,27.35
2022-08-09T12:01:37.397Z,27.57
2022-08-09T12:04:01.021Z,27.92
2022-08-09T12:06:32.496Z,28.18
2022-08-09T12:09:06.084Z,27.92
2022-08-09T12:12:02.519Z,28.13
2022-08-09T12:14:40.582Z,28.06
2022-08-09T12:17:34.034Z,27.89
2022-08-09T12:20:41.845Z,27.84
2022-08-09T12:23:08.610Z,28.05
2022-08-09T12:25:38.428Z,28.06
2022-08-09T12:29:10.985Z,28.31
2022-08-09T12:31:59.227Z,28.29
2022-08-09T12:34:06.255Z,27.90
2022-08-09T12:36:34.134Z,28.11
2022-08-09T12:39:03.604Z,28.49
2022-08-09T12:41:39.735Z,28.05
2022-08-09T12:44:10.211Z,28.05
2022-08-09T12:46:48.934Z,27.86
2022-08-09T12:49:17.522Z,27.87
2022-08-09T12:52:00.537Z,27.96
2022-08-09T12:54:30.970Z,28.14
2022-08-09T12:56:58.845Z,28.29
2022-08-09T12:59:57.907Z,28.45
2022-08-09T13:02:17.772Z,28.41
2022-08-09T13:04:59.949Z,27.95
2022-08-09T13:07:51.064Z,28.35
2022-08-09T13:10:16.700Z,28.60
2022-08-09T13:13:09.036Z,28.29
2022-08-09T13:15:35.696Z,28.67
2022-08-09T13:18:06.129Z,28.51
2022-08-09T13:21:04.009Z,28.26
2022-08-09T13:24:17.304Z,28.37
2022-08-09T13:26:36.945Z,28.58
2022-08-09T13:29:13.428Z,28.61
2022-08-09T13:32:19.273Z,29.01
2022-08-09T13:34:52.178Z,28.48
2022-08-09T13:37:50.522Z,28.91
2022-08-09T13:41:51.582Z,28.47
2022-08-09T13:42:55.470Z,28.86
2022-08-09T13:45:22.213Z,29.08
2022-08-09T13:47:59.400Z,29.01
2022-08-09T13:50:30.282Z,28.57
2022-08-09T13:52:57.536Z,28.83
2022-08-09T13:55:24.511Z,28.60
2022-08-09T13:57:58.335Z,28.53
2022-08-09T14:00:27.256Z,28.73
2022-08-09T14:03:03.277Z,28.96
2022-08-09T14:06:00.618Z,29.16
2022-08-09T14:08:30.297Z,29.18
2022-08-09T14:10:57.928Z,29.07
2022-08-09T14:14:14.695Z,29.11
2022-08-09T14:16:19.910Z,28.88
2022-08-09T14:18:55.955Z,28.74
2022-08-09T14:21:25.666Z,28.57
2022-08-09T14:23:57.285Z,28.77
2022-08-09T14:26:31.783Z,28.55
2022-08-09T14:29:03.040Z,28.81
2022-08-09T14:31:49.405Z,28.69
2022-08-09T14:34:17.381Z,28.87
2022-08-09T14:36:45.014Z,29.01
2022-08-09T14:39:11.789Z,28.73
2022-08-09T14:41:40.187Z,28.84
2022-08-09T14:44:09.564Z,29.05
2022-08-09T14:47:01.531Z,28.81
2022-08-09T14:49:26.235Z,28.69
2022-08-09T14:51:58.740Z,28.62
2022-08-09T14:54:28.321Z,28.88
2022-08-09T14:56:58.985Z,28.80
2022-08-09T14:59:28.736Z,28.67
2022-08-09T15:01:55.850Z,28.58
2022-08-09T15:04:23.524Z,28.57
2022-08-09T15:06:51.759Z,28.47
2022-08-09T15:10:03.177Z,28.80
2022-08-09T15:12:08.243Z,29.01
2022-08-09T15:14:38.812Z,28.79
2022-08-09T15:17:09.822Z,29.03
2022-08-09T15:19:59.828Z,28.74
2022-08-09T15:22:26.090Z,28.71
2022-08-09T15:24:53.502Z,28.92
2022-08-09T15:27:20.957Z,29.01
2022-08-09T15:30:56.930Z,29.42
2022-08-09T15:32:34.297Z,28.82
2022-08-09T15:35:01.419Z,28.91
2022-08-09T15:37:37.939Z,28.82
2022-08-09T15:40:25.293Z,28.96
2022-08-09T15:42:59.280Z,28.88
2022-08-09T15:45:29.889Z,28.97
2022-08-09T15:48:06.540Z,28.53
2022-08-09T15:50:44.019Z,28.38
2022-08-09T15:53:18.906Z,28.33
2022-08-09T15:56:28.544Z,28.48
2022-08-09T15:58:46.446Z,28.58
2022-08-09T16:01:13.437Z,28.85
2022-08-09T16:03:41.730Z,28.50
2022-08-09T16:06:31.449Z,28.58
2022-08-09T16:08:56.674Z,28.80
2022-08-09T16:11:28.659Z,28.49
2022-08-09T16:14:04.941Z,28.90
2022-08-09T16:16:37.147Z,28.97
2022-08-09T16:19:06.279Z,28.80
2022-08-09T16:21:35.458Z,28.67
2022-08-09T16:24:05.884Z,28.53
2022-08-09T16:26:40.407Z,28.49
2022-08-09T16:29:12.454Z,28.64
2022-08-09T16:32:19.749Z,28.80
2022-08-09T16:34:29.250Z,29.30
2022-08-09T16:36:56.607Z,28.91
2022-08-09T16:39:25.824Z,28.46
2022-08-09T16:42:02.766Z,28.92
2022-08-09T16:44:32.501Z,28.74
2022-08-09T16:47:04.250Z,28.80
2022-08-09T16:50:29.396Z,28.85
2022-08-09T16:52:33.597Z,28.45
2022-08-09T16:55:00.379Z,28.62
2022-08-09T16:57:27.051Z,28.72
2022-08-09T17:00:14.753Z,28.66
2022-08-09T17:02:42.743Z,28.54
2022-08-09T17:05:14.321Z,28.67
2022-08-09T17:08:45.942Z,28.70
2022-08-09T17:10:33.478Z,28.54
2022-08-09T17:13:01.437Z,28.52
2022-08-09T17:15:58.928Z,28.42
2022-08-09T17:18:15.602Z,28.52
2022-08-09T17:20:53.860Z,28.46
2022-08-09T17:23:20.811Z,28.68
2022-08-09T17:25:52.825Z,28.75
2022-08-09T17:28:20.083Z,28.77
2022-08-09T17:30:47.776Z,28.76
2022-08-09T17:33:23.001Z,28.53
2022-08-09T17:35:50.202Z,28.45
2022-08-09T17:38:31.026Z,28.29
2022-08-09T17:41:03.127Z,28.52
2022-08-09T17:43:34.291Z,28.59
2022-08-09T17:46:08.839Z,28.34
2022-08-09T17:48:39.844Z,28.39
2022-08-09T17:51:19.312Z,28.13
2022-08-09T17:53:51.872Z,28.02
2022-08-09T17:56:19.756Z,27.97
2022-08-09T17:58:47.165Z,28.31
2022-08-09T18:01:15.621Z,28.41
2022-08-09T18:03:52.551Z,28.13
2022-08-09T18:06:30.875Z,28.14
2022-08-09T18:09:03.331Z,28.11
2022-08-09T18:11:46.851Z,28.15
2022-08-09T18:14:22.940Z,27.76
2022-08-09T18:16:50.066Z,27.91
2022-08-09T18:20:56.016Z,27.92
2022-08-09T18:22:05.691Z,28.13
2022-08-09T18:24:40.233Z,27.69
2022-08-09T18:27:09.703Z,27.89
2022-08-09T18:30:38.509Z,28.00
2022-08-09T18:32:28.133Z,27.97
2022-08-09T18:34:54.705Z,27.98
2022-08-09T18:37:47.294Z,28.13
2022-08-09T18:40:08.683Z,28.21
2022-08-09T18:42:36.548Z,28.17
2022-08-09T18:45:08.430Z,28.06
2022-08-09T18:47:37.565Z,27.94
2022-08-09T18:50:06.108Z,27.91
2022-08-09T18:52:36.306Z,27.85
2022-08-09T18:55:05.722Z,27.83
2022-08-09T18:57:43.506Z,27.54
2022-08-09T19:00:16.662Z,27.40
2022-08-09T19:02:51.384Z,27.40
2022-08-09T19:05:58.689Z,27.31
2022-08-09T19:08:11.945Z,27.12
2022-08-09T19:10:41.006Z,27.30
2022-08-09T19:13:20.838Z,27.26
2022-08-09T19:15:56.367Z,27.10
2022-08-09T19:18:33.158Z,26.87
2022-08-09T19:21:09.396Z,26.93
2022-08-09T19:24:31.854Z,26.98
2022-08-09T19:26:31.814Z,27.09
2022-08-09T19:29:15.215Z,27.13
2022-08-09T19:31:46.561Z,27.02
2022-08-09T19:34:21.799Z,26.75
2022-08-09T19:36:53.775Z,26.68
2022-08-09T19:39:42.980Z,26.63
2022-08-09T19:42:08.662Z,26.21
2022-08-09T19:44:35.385Z,26.43
2022-08-09T19:47:02.770Z,26.66
2022-08-09T19:50:08.601Z,26.47
2022-08-09T19:52:18.148Z,26.72
2022-08-09T19:54:45.016Z,26.62
2022-08-09T19:57:11.644Z,26.49
2022-08-09T20:00:02.386Z,26.63
2022-08-09T20:04:12.610Z,26.47
2022-08-09T20:05:15.013Z,26.41
2022-08-09T20:07:58.588Z,26.47
2022-08-09T20:10:34.679Z,26.30
2022-08-09T20:13:05.238Z,26.02
2022-08-09T20:16:37.094Z,25.94
2022-08-09T20:18:19.687Z,26.11
2022-08-09T20:20:47.189Z,26.10
2022-08-09T20:23:17.303Z,26.12
2022-08-09T20:25:52.607Z,26.05
2022-08-09T20:28:27.414Z,25.97
2022-08-09T20:31:00.991Z,25.83
2022-08-09T20:33:39.126Z,25.86
2022-08-09T20:36:10.660Z,25.38
2022-08-09T20:41:35.114Z,24.90
2022-08-09T20:44:06.978Z,24.92
2022-08-09T20:46:43.210Z,24.91
2022-08-09T20:49:12.423Z,24.77
2022-08-09T20:51:41.400Z,24.75
2022-08-09T20:54:12.576Z,25.01
2022-08-09T20:56:47.252Z,24.95
2022-08-09T20:59:17.031Z,25.41
2022-08-09T21:01:50.575Z,25.13
2022-08-09T21:05:52.881Z,25.38
2022-08-09T21:07:11.450Z,25.20
2022-08-09T21:09:45.759Z,25.17
2022-08-09T21:12:18.713Z,25.14
2022-08-09T21:14:46.108Z,25.10
2022-08-09T21:18:21.016Z,24.78
2022-08-09T21:20:17.809Z,24.71
2022-08-09T21:22:52.465Z,24.69
2022-08-09T21:25:39.536Z,24.64
2022-08-09T21:28:11.909Z,24.25
2022-08-09T21:30:42.365Z,24.29
2022-08-09T21:33:09.127Z,24.24
2022-08-09T21:35:40.752Z,24.24
2022-08-09T21:38:21.111Z,24.22
2022-08-09T21:40:58.554Z,24.31
2022-08-09T21:43:57.116Z,24.27
2022-08-09T21:46:12.772Z,24.25
2022-08-09T21:48:42.698Z,24.24
2022-08-09T21:51:23.891Z,23.92
2022-08-09T21:54:02.760Z,24.10
2022-08-09T21:56:42.960Z,24.21
2022-08-09T21:59:11.466Z,24.01
2022-08-09T22:02:01.195Z,23.90
2022-08-09T22:04:55.085Z,23.70
2022-08-09T22:07:23.614Z,24.06
2022-08-09T22:10:07.146Z,24.43
2022-08-09T22:12:34.658Z,24.52
2022-08-09T22:15:01.300Z,24.06
2022-08-09T22:17:28.009Z,24.01
2022-08-09T22:20:00.652Z,23.51
2022-08-09T22:22:31.269Z,23.54
2022-08-09T22:26:06.547Z,23.78
2022-08-09T22:27:47.505Z,23.48
2022-08-09T22:30:15.512Z,23.46
2022-08-09T22:32:53.029Z,23.61
2022-08-09T22:36:01.343Z,23.65
2022-08-09T22:38:07.592Z,23.82
2022-08-09T22:40:35.389Z,23.77
2022-08-09T22:43:16.057Z,23.79
2022-08-09T22:48:17.101Z,23.66
2022-08-09T22:48:36.825Z,23.93
2022-08-09T22:51:10.341Z,24.08
2022-08-09T22:53:58.670Z,23.77
2022-08-09T22:56:31.179Z,23.78
2022-08-09T22:59:05.886Z,23.59
2022-08-09T23:01:48.845Z,23.22
2022-08-09T23:04:15.611Z,23.25
2022-08-09T23:07:02.540Z,23.44
2022-08-09T23:09:29.188Z,23.08
2022-08-09T23:11:55.751Z,23.33
2022-08-09T23:14:37.364Z,23.24
2022-08-09T23:17:09.977Z,23.53
2022-08-09T23:20:06.998Z,23.49
2022-08-09T23:22:23.535Z,23.26
2022-08-09T23:24:50.136Z,23.40
2022-08-09T23:27:16.758Z,23.42
2022-08-09T23:29:43.334Z,23.72
2022-08-09T23:32:10.345Z,23.54
2022-08-09T23:34:37.692Z,23.63
2022-08-09T23:37:04.896Z,23.76
2022-08-09T23:39:31.709Z,23.75
2022-08-09T23:41:58.666Z,23.81
2022-08-09T23:44:25.245Z,23.08
2022-08-09T23:46:52.819Z,23.06
2022-08-09T23:49:25.082Z,23.29
2022-08-09T23:51:52.375Z,23.28
2022-08-09T23:54:19.665Z,23.06
2022-08-09T23:56:54.377Z,23.18
2022-08-09T23:59:23.486Z,23.08
